Terminal Aerodrome Forecast
Issued by NWS Indianapolis, IN

Home | Current Version | Previous Version | Text Only | Print | Product List | Glossary On
Versions: 1 2 3 4 5 6 7 8 9 10 11 12 13 14 15 16 17 18 19 20 21 22 23 24 25 26 27 28
000
FTUS43 KIND 190200 AAA
TAFIND
TAF AMD
KIND 190224Z 1902/2006 09007KT P6SM FEW150 BKN250
     FM190500 07012KT P6SM OVC200
     FM191500 09013KT 5SM SHRA BR OVC012
     FM191800 12014KT 3SM SHRA BR OVC006
     FM192300 21015KT 5SM SHRA BR OVC009
     FM200300 24011KT P6SM BKN015=

USA.gov is the U.S. government's official web portal to all federal, state and local government web resources and services.